Time;durP1;ratioP1;P1;durP2;ratioP2;P2;SDS_P1;SDS_P2;PMS_P1;PMS_P2;Temp;Humidity;BMP_temperature;BMP_pressure;BME280_temperature;BME280_humidity;BME280_pressure;Samples;Min_cycle;Max_cycle;Signal;HPM_P1;HPM_P2
2019/11/29 00:01:40;;;;;;;15.1;9.1;;;;;;;;;;;;;
2019/11/29 00:04:03;;;;;;;9.3;5;;;;;;;;;;;;;
2019/11/29 00:06:29;;;;;;;0.9;0.6;;;;;;;;;;;;;
2019/11/29 00:08:55;;;;;;;1.3;0.5;;;;;;;;;;;;;
2019/11/29 00:11:21;;;;;;;0.7;0.6;;;;;;;;;;;;;
2019/11/29 00:13:47;;;;;;;0.9;0.4;;;;;;;;;;;;;
2019/11/29 00:16:17;;;;;;;1.9;0.9;;;;;;;;;;;;;
2019/11/29 00:18:44;;;;;;;2.2;1.2;;;;;;;;;;;;;
2019/11/29 00:21:13;;;;;;;2.6;0.9;;;;;;;;;;;;;
2019/11/29 00:23:34;;;;;;;1.1;0.5;;;;;;;;;;;;;
2019/11/29 00:25:59;;;;;;;0.6;0.4;;;;;;;;;;;;;
2019/11/29 00:28:27;;;;;;;1;0.6;;;;;;;;;;;;;
2019/11/29 00:30:55;;;;;;;1.6;0.6;;;;;;;;;;;;;
2019/11/29 00:33:15;;;;;;;0.6;0.6;;;;;;;;;;;;;
2019/11/29 00:35:41;;;;;;;1.9;0.4;;;;;;;;;;;;;
2019/11/29 00:38:07;;;;;;;1;0.6;;;;;;;;;;;;;
2019/11/29 00:40:31;;;;;;;1.2;0.6;;;;;;;;;;;;;
2019/11/29 00:42:56;;;;;;;0.8;0.6;;;;;;;;;;;;;
2019/11/29 00:45:21;;;;;;;0.6;0.4;;;;;;;;;;;;;
2019/11/29 00:47:46;;;;;;;0.8;0.5;;;;;;;;;;;;;
2019/11/29 00:50:12;;;;;;;1.3;0.6;;;;;;;;;;;;;
2019/11/29 00:52:38;;;;;;;1.5;0.4;;;;;;;;;;;;;
2019/11/29 00:55:02;;;;;;;1.3;0.7;;;;;;;;;;;;;
2019/11/29 00:57:46;;;;;;;1.2;0.6;;;;;;;;;;;;;
2019/11/29 00:59:59;;;;;;;1.3;0.6;;;;;;;;;;;;;
2019/11/29 01:02:37;;;;;;;1;0.4;;;;;;;;;;;;;
2019/11/29 01:04:42;;;;;;;0.8;0.5;;;;;;;;;;;;;
2019/11/29 01:07:10;;;;;;;0.8;0.6;;;;;;;;;;;;;
2019/11/29 01:09:34;;;;;;;0.9;0.6;;;;;;;;;;;;;
2019/11/29 01:11:58;;;;;;;1;0.5;;;;;;;;;;;;;
2019/11/29 01:14:24;;;;;;;1.6;0.6;;;;;;;;;;;;;
2019/11/29 01:16:51;;;;;;;2.3;0.6;;;;;;;;;;;;;
2019/11/29 01:20:39;;;;;;;0.5;0.4;;;;;;;;;;;;;
2019/11/29 01:23:04;;;;;;;1.3;0.6;;;;;;;;;;;;;
2019/11/29 01:25:31;;;;;;;0.7;0.5;;;;;;;;;;;;;
2019/11/29 01:27:57;;;;;;;2.7;2.2;;;;;;;;;;;;;
2019/11/29 01:30:21;;;;;;;1;0.9;;;;;;;;;;;;;
2019/11/29 01:32:49;;;;;;;1.5;0.6;;;;;;;;;;;;;
2019/11/29 01:35:12;;;;;;;1.2;0.7;;;;;;;;;;;;;
2019/11/29 01:37:38;;;;;;;1.2;0.6;;;;;;;;;;;;;
2019/11/29 01:40:02;;;;;;;1;0.7;;;;;;;;;;;;;
2019/11/29 01:42:27;;;;;;;1.3;0.5;;;;;;;;;;;;;
2019/11/29 01:44:54;;;;;;;2.2;0.6;;;;;;;;;;;;;
2019/11/29 01:47:18;;;;;;;1.3;0.4;;;;;;;;;;;;;
2019/11/29 01:49:44;;;;;;;2.3;0.5;;;;;;;;;;;;;
2019/11/29 01:52:10;;;;;;;1.1;0.5;;;;;;;;;;;;;
2019/11/29 01:54:35;;;;;;;0.7;0.5;;;;;;;;;;;;;
2019/11/29 01:57:01;;;;;;;0.6;0.5;;;;;;;;;;;;;
2019/11/29 01:59:24;;;;;;;0.3;0.3;;;;;;;;;;;;;
2019/11/29 02:01:51;;;;;;;1.5;0.4;;;;;;;;;;;;;
2019/11/29 02:04:16;;;;;;;0.4;0.4;;;;;;;;;;;;;
2019/11/29 02:06:40;;;;;;;1.6;0.5;;;;;;;;;;;;;
2019/11/29 02:09:09;;;;;;;0.6;0.4;;;;;;;;;;;;;
2019/11/29 02:11:34;;;;;;;0.8;0.3;;;;;;;;;;;;;
2019/11/29 02:13:58;;;;;;;0.7;0.4;;;;;;;;;;;;;
2019/11/29 02:16:24;;;;;;;0.6;0.3;;;;;;;;;;;;;
2019/11/29 02:18:50;;;;;;;0.7;0.4;;;;;;;;;;;;;
2019/11/29 02:21:16;;;;;;;0.6;0.3;;;;;;;;;;;;;
2019/11/29 02:23:41;;;;;;;0.3;0.2;;;;;;;;;;;;;
2019/11/29 02:26:12;;;;;;;0.6;0.4;;;;;;;;;;;;;
2019/11/29 02:28:44;;;;;;;0.3;0.3;;;;;;;;;;;;;
2019/11/29 02:31:14;;;;;;;0.3;0.2;;;;;;;;;;;;;
2019/11/29 02:33:28;;;;;;;0.5;0.3;;;;;;;;;;;;;
2019/11/29 02:35:53;;;;;;;0.3;0.2;;;;;;;;;;;;;
2019/11/29 02:38:19;;;;;;;0.5;0.2;;;;;;;;;;;;;
2019/11/29 02:40:47;;;;;;;0.3;0.2;;;;;;;;;;;;;
2019/11/29 02:43:13;;;;;;;0.6;0.3;;;;;;;;;;;;;
2019/11/29 02:45:40;;;;;;;0.5;0.3;;;;;;;;;;;;;
2019/11/29 02:48:05;;;;;;;0.9;0.3;;;;;;;;;;;;;
2019/11/29 02:50:28;;;;;;;0.1;0.1;;;;;;;;;;;;;
2019/11/29 02:52:53;;;;;;;1;0.4;;;;;;;;;;;;;
2019/11/29 02:55:22;;;;;;;1.3;0.5;;;;;;;;;;;;;
2019/11/29 02:57:50;;;;;;;0.4;0.3;;;;;;;;;;;;;
2019/11/29 03:00:11;;;;;;;0.7;0.3;;;;;;;;;;;;;
2019/11/29 03:02:49;;;;;;;0.4;0.3;;;;;;;;;;;;;
2019/11/29 03:05:05;;;;;;;0.4;0.3;;;;;;;;;;;;;
2019/11/29 03:07:28;;;;;;;0.3;0.2;;;;;;;;;;;;;
2019/11/29 03:09:53;;;;;;;0.3;0.2;;;;;;;;;;;;;
2019/11/29 03:12:18;;;;;;;0.5;0.3;;;;;;;;;;;;;
2019/11/29 03:14:45;;;;;;;1.2;0.3;;;;;;;;;;;;;
2019/11/29 03:17:10;;;;;;;0.7;0.1;;;;;;;;;;;;;
2019/11/29 03:19:34;;;;;;;0.3;0.3;;;;;;;;;;;;;
2019/11/29 03:22:01;;;;;;;2;0.3;;;;;;;;;;;;;
2019/11/29 03:24:25;;;;;;;0.3;0.2;;;;;;;;;;;;;
2019/11/29 03:26:53;;;;;;;0.5;0.4;;;;;;;;;;;;;
2019/11/29 03:29:14;;;;;;;0.3;0.2;;;;;;;;;;;;;
2019/11/29 03:31:39;;;;;;;0.9;0.5;;;;;;;;;;;;;
2019/11/29 03:34:05;;;;;;;0.3;0.3;;;;;;;;;;;;;
2019/11/29 03:36:31;;;;;;;0.3;0.2;;;;;;;;;;;;;
2019/11/29 03:38:56;;;;;;;1.4;0.3;;;;;;;;;;;;;
2019/11/29 03:41:20;;;;;;;2.5;0.4;;;;;;;;;;;;;
2019/11/29 03:43:48;;;;;;;0.2;0.2;;;;;;;;;;;;;
2019/11/29 03:46:11;;;;;;;0.9;0.5;;;;;;;;;;;;;
2019/11/29 03:48:38;;;;;;;2.3;0.6;;;;;;;;;;;;;
2019/11/29 03:51:04;;;;;;;0.7;0.5;;;;;;;;;;;;;
2019/11/29 03:53:28;;;;;;;1.2;0.5;;;;;;;;;;;;;
2019/11/29 03:55:52;;;;;;;0.6;0.5;;;;;;;;;;;;;
2019/11/29 03:58:18;;;;;;;1;0.6;;;;;;;;;;;;;
2019/11/29 04:02:36;;;;;;;1.7;0.6;;;;;;;7.38;80.92578;927.1453;;;;
2019/11/29 04:05:02;;;;;;;1.1;0.5;;;;;;;7.43;80.67676;927.088;;;;
2019/11/29 04:07:31;;;;;;;1.3;0.6;;;;;;;7.34;81.12305;927.1619;;;;
2019/11/29 04:09:52;;;;;;;0.6;0.4;;;;;;;6.94;83.24414;927.2537;;;;
2019/11/29 04:12:37;;;;;;;0.3;0.3;;;;;;;;;;;;;
2019/11/29 04:14:47;;;;;;;0.9;0.5;;;;;;;;;;;;;
2019/11/29 04:17:13;;;;;;;1.4;0.7;;;;;;;;;;;;;
2019/11/29 04:19:43;;;;;;;2.9;0.7;;;;;;;;;;;;;
2019/11/29 04:22:10;;;;;;;2.1;0.8;;;;;;;;;;;;;
2019/11/29 04:24:34;;;;;;;2.1;1;;;;;;;;;;;;;
2019/11/29 04:27:11;;;;;;;2.2;1;;;;;;;;;;;;;
2019/11/29 04:29:23;;;;;;;1.2;0.7;;;;;;;;;;;;;
2019/11/29 04:31:54;;;;;;;2.7;0.7;;;;;;;;;;;;;
2019/11/29 04:34:17;;;;;;;1;0.4;;;;;;;;;;;;;
2019/11/29 04:36:46;;;;;;;3;0.5;;;;;;;;;;;;;
2019/11/29 04:39:08;;;;;;;0.6;0.5;;;;;;;;;;;;;
2019/11/29 04:41:33;;;;;;;0.8;0.4;;;;;;;;;;;;;
2019/11/29 04:43:57;;;;;;;0.9;0.4;;;;;;;;;;;;;
2019/11/29 04:46:26;;;;;;;0.5;0.4;;;;;;;;;;;;;
2019/11/29 04:48:51;;;;;;;1.5;0.5;;;;;;;;;;;;;
2019/11/29 04:51:16;;;;;;;0.6;0.4;;;;;;;;;;;;;
2019/11/29 04:53:41;;;;;;;0.4;0.4;;;;;;;;;;;;;
2019/11/29 04:56:10;;;;;;;0.9;0.5;;;;;;;;;;;;;
2019/11/29 04:58:32;;;;;;;4.1;0.7;;;;;;;;;;;;;
2019/11/29 05:00:58;;;;;;;1.2;0.5;;;;;;;;;;;;;
2019/11/29 05:03:22;;;;;;;0.7;0.5;;;;;;;;;;;;;
2019/11/29 05:05:52;;;;;;;1.6;0.6;;;;;;;;;;;;;
2019/11/29 05:08:15;;;;;;;0.9;0.5;;;;;;;;;;;;;
2019/11/29 05:10:43;;;;;;;0.5;0.4;;;;;;;;;;;;;
2019/11/29 05:13:10;;;;;;;1.4;0.6;;;;;;;;;;;;;
2019/11/29 05:15:32;;;;;;;1;0.6;;;;;;;;;;;;;
2019/11/29 05:17:57;;;;;;;2.2;0.6;;;;;;;;;;;;;
2019/11/29 05:20:37;;;;;;;0.8;0.5;;;;;;;;;;;;;
2019/11/29 05:22:49;;;;;;;1.8;0.8;;;;;;;;;;;;;
2019/11/29 05:27:39;;;;;;;1.2;1;;;;;;;;;;;;;
2019/11/29 05:32:33;;;;;;;2.2;1.1;;;;;;;;;;;;;
2019/11/29 05:34:52;;;;;;;1.5;0.9;;;;;;;;;;;;;
2019/11/29 05:37:18;;;;;;;2.3;0.7;;;;;;;;;;;;;
2019/11/29 05:39:42;;;;;;;1.3;1;;;;;;;;;;;;;
2019/11/29 05:42:13;;;;;;;5.4;2;;;;;;;;;;;;;
2019/11/29 05:44:38;;;;;;;3.6;1.8;;;;;;;;;;;;;
2019/11/29 05:47:07;;;;;;;4.5;1.9;;;;;;;;;;;;;
2019/11/29 05:49:33;;;;;;;3.6;2;;;;;;;;;;;;;
2019/11/29 05:51:56;;;;;;;4.8;2.9;;;;;;;;;;;;;
2019/11/29 05:54:24;;;;;;;3.3;1.4;;;;;;;;;;;;;
2019/11/29 05:56:52;;;;;;;2;0.9;;;;;;;;;;;;;
2019/11/29 05:59:16;;;;;;;1.3;0.8;;;;;;;;;;;;;
2019/11/29 06:01:39;;;;;;;3.3;1.3;;;;;;;;;;;;;
2019/11/29 06:04:06;;;;;;;2.7;1.4;;;;;;;;;;;;;
2019/11/29 06:06:36;;;;;;;2.6;1.4;;;;;;;;;;;;;
2019/11/29 06:09:11;;;;;;;3.2;1.6;;;;;;;;;;;;;
2019/11/29 06:11:23;;;;;;;3.7;1.8;;;;;;;;;;;;;
2019/11/29 06:13:47;;;;;;;5.3;1.9;;;;;;;;;;;;;
2019/11/29 06:16:17;;;;;;;5.2;3;;;;;;;;;;;;;
2019/11/29 06:18:40;;;;;;;4.8;3.4;;;;;;;;;;;;;
2019/11/29 06:21:05;;;;;;;7.8;6.9;;;;;;;;;;;;;
2019/11/29 06:23:27;;;;;;;8.9;6.3;;;;;;;;;;;;;
2019/11/29 06:25:52;;;;;;;5.7;5.1;;;;;;;;;;;;;
2019/11/29 06:28:20;;;;;;;4;3;;;;;;;;;;;;;
2019/11/29 06:31:01;;;;;;;5;1.8;;;;;;;;;;;;;
2019/11/29 06:33:27;;;;;;;3.5;1.3;;;;;;;;;;;;;
2019/11/29 06:35:52;;;;;;;2.2;1.5;;;;;;;;;;;;;
2019/11/29 06:38:19;;;;;;;4.1;2.1;;;;;;;;;;;;;
2019/11/29 06:40:44;;;;;;;5;3.5;;;;;;;;;;;;;
2019/11/29 06:43:09;;;;;;;7;4;;;;;;;;;;;;;
2019/11/29 06:45:39;;;;;;;8.7;5.2;;;;;;;;;;;;;
2019/11/29 06:48:05;;;;;;;12.6;4.5;;;;;;;;;;;;;
2019/11/29 06:53:12;;;;;;;7.2;3.9;;;;;;;;;;;;;
2019/11/29 06:55:29;;;;;;;11.3;3.3;;;;;;;;;;;;;
2019/11/29 06:57:54;;;;;;;7.8;2.9;;;;;;;;;;;;;
2019/11/29 07:00:37;;;;;;;4.5;1.9;;;;;;;;;;;;;
2019/11/29 07:02:48;;;;;;;6.2;2.5;;;;;;;;;;;;;
2019/11/29 07:05:13;;;;;;;5.5;2.3;;;;;;;;;;;;;
2019/11/29 07:07:36;;;;;;;4.2;2.2;;;;;;;;;;;;;
2019/11/29 07:10:04;;;;;;;4.3;2.8;;;;;;;;;;;;;
2019/11/29 07:12:28;;;;;;;4.6;2.8;;;;;;;;;;;;;
2019/11/29 07:14:54;;;;;;;3.7;3;;;;;;;;;;;;;
2019/11/29 07:17:19;;;;;;;4.1;1.8;;;;;;;;;;;;;
2019/11/29 07:19:51;;;;;;;3;2.6;;;;;;;;;;;;;
2019/11/29 07:22:14;;;;;;;4.9;3.1;;;;;;;;;;;;;
2019/11/29 07:24:34;;;;;;;6.4;3.5;;;;;;;;;;;;;
2019/11/29 07:27:14;;;;;;;3;2.1;;;;;;;;;;;;;
2019/11/29 07:29:38;;;;;;;2.8;1.8;;;;;;;;;;;;;
2019/11/29 07:32:02;;;;;;;6;3.9;;;;;;;;;;;;;
2019/11/29 07:34:28;;;;;;;6.5;2.3;;;;;;;;;;;;;
2019/11/29 07:37:08;;;;;;;3.1;2;;;;;;;;;;;;;
2019/11/29 07:39:33;;;;;;;5.4;2.3;;;;;;;;;;;;;
2019/11/29 07:42:00;;;;;;;3.2;2.4;;;;;;;;;;;;;
2019/11/29 07:44:25;;;;;;;5.8;2.2;;;;;;;;;;;;;
2019/11/29 07:46:48;;;;;;;6.2;2.2;;;;;;;;;;;;;
2019/11/29 07:49:14;;;;;;;4.5;2.1;;;;;;;;;;;;;
2019/11/29 07:51:41;;;;;;;3.4;2.1;;;;;;;;;;;;;
2019/11/29 07:54:09;;;;;;;70.6;10.9;;;;;;;;;;;;;
2019/11/29 07:57:23;;;;;;;16.1;4.3;;;;;;;;;;;;;
2019/11/29 07:59:46;;;;;;;8.4;3.3;;;;;;;;;;;;;
2019/11/29 08:02:14;;;;;;;10.5;6.6;;;;;;;;;;;;;
2019/11/29 08:04:37;;;;;;;8.3;4.8;;;;;;;;;;;;;
2019/11/29 08:07:02;;;;;;;4.5;3.1;;;;;;;;;;;;;
2019/11/29 08:09:27;;;;;;;5.1;2.8;;;;;;;;;;;;;
2019/11/29 08:11:52;;;;;;;6;2.7;;;;;;;;;;;;;
2019/11/29 08:14:18;;;;;;;6.6;2.9;;;;;;;;;;;;;
2019/11/29 08:16:53;;;;;;;6.9;3.5;;;;;;;;;;;;;
2019/11/29 08:21:49;;;;;;;2.6;2;;;;;;;;;;;;;
2019/11/29 08:24:18;;;;;;;6;2.7;;;;;;;;;;;;;
2019/11/29 08:26:44;;;;;;;3.7;2.2;;;;;;;;;;;;;
2019/11/29 08:29:10;;;;;;;3;2;;;;;;;;;;;;;
2019/11/29 08:31:38;;;;;;;2.9;1.7;;;;;;;;;;;;;
2019/11/29 08:34:01;;;;;;;3.8;1.5;;;;;;;;;;;;;
2019/11/29 08:36:26;;;;;;;3.7;2;;;;;;;;;;;;;
2019/11/29 08:38:50;;;;;;;5.2;3.5;;;;;;;;;;;;;
2019/11/29 08:41:19;;;;;;;4.7;3.8;;;;;;;;;;;;;
2019/11/29 08:43:50;;;;;;;3.2;2.7;;;;;;;;;;;;;
2019/11/29 08:49:02;;;;;;;2.5;1.4;;;;;;;;;;;;;
2019/11/29 08:51:21;;;;;;;2.3;1.3;;;;;;;;;;;;;
2019/11/29 08:53:45;;;;;;;1.6;1;;;;;;;;;;;;;
2019/11/29 08:56:08;;;;;;;2;0.9;;;;;;;;;;;;;
2019/11/29 08:58:33;;;;;;;1.3;0.8;;;;;;;;;;;;;
2019/11/29 09:01:00;;;;;;;3.1;0.9;;;;;;;;;;;;;
2019/11/29 09:03:25;;;;;;;1.9;1.1;;;;;;;;;;;;;
2019/11/29 09:05:50;;;;;;;1.9;1.1;;;;;;;;;;;;;
2019/11/29 09:08:13;;;;;;;3.4;1.8;;;;;;;;;;;;;
2019/11/29 09:10:45;;;;;;;4;2.1;;;;;;;;;;;;;
2019/11/29 09:13:08;;;;;;;3.4;1.7;;;;;;;;;;;;;
2019/11/29 09:15:30;;;;;;;3.6;1.8;;;;;;;;;;;;;
2019/11/29 09:17:58;;;;;;;4.3;2.8;;;;;;;;;;;;;
2019/11/29 09:20:25;;;;;;;4;2.5;;;;;;;;;;;;;
2019/11/29 09:22:50;;;;;;;4.3;2.1;;;;;;;;;;;;;
2019/11/29 09:25:18;;;;;;;3.3;2.2;;;;;;;;;;;;;
2019/11/29 09:27:45;;;;;;;4.3;2.4;;;;;;;;;;;;;
2019/11/29 09:30:09;;;;;;;4;2.1;;;;;;;;;;;;;
2019/11/29 09:32:37;;;;;;;3.3;1.5;;;;;;;;;;;;;
2019/11/29 09:34:59;;;;;;;6.1;3;;;;;;;;;;;;;
2019/11/29 09:37:26;;;;;;;8.5;5.8;;;;;;;;;;;;;
2019/11/29 09:39:54;;;;;;;12.5;7.3;;;;;;;;;;;;;
2019/11/29 09:42:22;;;;;;;9.9;6.3;;;;;;;;;;;;;
2019/11/29 09:44:50;;;;;;;8.6;5.7;;;;;;;;;;;;;
2019/11/29 09:47:21;;;;;;;4.8;3.1;;;;;;;;;;;;;
2019/11/29 09:50:16;;;;;;;6.4;4;;;;;;;;;;;;;
2019/11/29 09:52:05;;;;;;;5.4;3.6;;;;;;;;;;;;;
2019/11/29 09:54:27;;;;;;;6.8;4.2;;;;;;;;;;;;;
2019/11/29 09:56:52;;;;;;;7.2;3.7;;;;;;;;;;;;;
2019/11/29 09:59:20;;;;;;;5.9;3;;;;;;;;;;;;;
2019/11/29 10:01:43;;;;;;;6.5;2.4;;;;;;;;;;;;;
2019/11/29 10:04:07;;;;;;;3.5;2.5;;;;;;;;;;;;;
2019/11/29 10:06:32;;;;;;;3.8;2.4;;;;;;;;;;;;;
2019/11/29 10:09:13;;;;;;;3.8;1.7;;;;;;;;;;;;;
2019/11/29 10:11:40;;;;;;;2.3;1.4;;;;;;;;;;;;;
2019/11/29 10:14:08;;;;;;;2;1.2;;;;;;;;;;;;;
2019/11/29 10:16:31;;;;;;;3.9;1.4;;;;;;;;;;;;;
2019/11/29 10:18:55;;;;;;;1.5;1.2;;;;;;;;;;;;;
2019/11/29 10:21:20;;;;;;;8.7;6.4;;;;;;;;;;;;;
2019/11/29 10:23:51;;;;;;;15.5;11.2;;;;;;;;;;;;;
2019/11/29 10:26:14;;;;;;;10.7;7.1;;;;;;;;;;;;;
2019/11/29 10:28:40;;;;;;;2.1;1.5;;;;;;;;;;;;;
2019/11/29 10:31:07;;;;;;;2.8;1.5;;;;;;;;;;;;;
2019/11/29 10:33:30;;;;;;;3;1.4;;;;;;;;;;;;;
2019/11/29 10:35:59;;;;;;;3;1.6;;;;;;;;;;;;;
2019/11/29 10:38:26;;;;;;;4.6;2.1;;;;;;;;;;;;;
2019/11/29 10:40:49;;;;;;;2.6;1.3;;;;;;;;;;;;;
2019/11/29 10:43:16;;;;;;;2.5;1.5;;;;;;;;;;;;;
2019/11/29 10:45:47;;;;;;;1.9;1.1;;;;;;;;;;;;;
2019/11/29 10:48:14;;;;;;;7;1.3;;;;;;;;;;;;;
2019/11/29 10:50:42;;;;;;;1.7;1.1;;;;;;;;;;;;;
2019/11/29 10:53:07;;;;;;;1.4;0.9;;;;;;;;;;;;;
2019/11/29 10:55:32;;;;;;;1.8;1;;;;;;;;;;;;;
2019/11/29 10:57:58;;;;;;;6.6;3.6;;;;;;;;;;;;;
2019/11/29 11:00:23;;;;;;;8.6;3.5;;;;;;;;;;;;;
2019/11/29 11:02:50;;;;;;;2.8;1.3;;;;;;;;;;;;;
2019/11/29 11:05:13;;;;;;;2;0.9;;;;;;;;;;;;;
2019/11/29 11:08:13;;;;;;;1.7;0.8;;;;;;;;;;;;;
2019/11/29 11:10:33;;;;;;;1.5;1.1;;;;;;;;;;;;;
2019/11/29 11:12:57;;;;;;;4;1.1;;;;;;;;;;;;;
2019/11/29 11:15:22;;;;;;;2.3;0.9;;;;;;;;;;;;;
2019/11/29 11:17:49;;;;;;;3.9;1.4;;;;;;;;;;;;;
2019/11/29 11:20:12;;;;;;;2.6;0.9;;;;;;;;;;;;;
2019/11/29 11:22:37;;;;;;;2.4;1;;;;;;;;;;;;;
2019/11/29 11:25:03;;;;;;;2.3;1.5;;;;;;;;;;;;;
2019/11/29 11:27:29;;;;;;;3.9;1.2;;;;;;;;;;;;;
2019/11/29 11:29:59;;;;;;;2;1;;;;;;;;;;;;;
2019/11/29 11:32:19;;;;;;;2.5;1;;;;;;;;;;;;;
2019/11/29 11:34:43;;;;;;;2.1;1.2;;;;;;;;;;;;;
2019/11/29 11:37:07;;;;;;;3.1;1.4;;;;;;;;;;;;;
2019/11/29 11:39:38;;;;;;;1.9;1.2;;;;;;;;;;;;;
2019/11/29 11:41:59;;;;;;;3.1;1.9;;;;;;;;;;;;;
2019/11/29 11:44:23;;;;;;;2.1;1;;;;;;;;;;;;;
2019/11/29 11:46:53;;;;;;;2.3;1;;;;;;;;;;;;;
2019/11/29 11:49:18;;;;;;;4;1.6;;;;;;;;;;;;;
2019/11/29 11:51:39;;;;;;;4.7;1.8;;;;;;;;;;;;;
2019/11/29 11:54:05;;;;;;;3.9;2.7;;;;;;;;;;;;;
2019/11/29 11:56:29;;;;;;;7.5;2.8;;;;;;;;;;;;;
2019/11/29 11:58:57;;;;;;;5;4.4;;;;;;;;;;;;;
2019/11/29 12:01:24;;;;;;;10.9;8.8;;;;;;;;;;;;;
2019/11/29 12:03:45;;;;;;;6.3;4.8;;;;;;;;;;;;;
2019/11/29 12:06:09;;;;;;;5.6;3.9;;;;;;;;;;;;;
2019/11/29 12:08:37;;;;;;;5;2;;;;;;;;;;;;;
2019/11/29 12:11:00;;;;;;;4.5;1.5;;;;;;;;;;;;;
2019/11/29 12:13:26;;;;;;;3.7;2.7;;;;;;;;;;;;;
2019/11/29 12:15:50;;;;;;;3.5;1;;;;;;;;;;;;;
2019/11/29 12:18:18;;;;;;;3;0.9;;;;;;;;;;;;;
2019/11/29 12:20:43;;;;;;;2.6;1.5;;;;;;;;;;;;;
2019/11/29 12:23:08;;;;;;;2.2;1.4;;;;;;;;;;;;;
2019/11/29 12:26:17;;;;;;;1.5;0.9;;;;;;;;;;;;;
2019/11/29 12:28:34;;;;;;;1.8;0.7;;;;;;;;;;;;;
2019/11/29 12:31:05;;;;;;;1.4;0.8;;;;;;;;;;;;;
2019/11/29 12:33:25;;;;;;;3.3;0.9;;;;;;;;;;;;;
2019/11/29 12:35:50;;;;;;;1;0.8;;;;;;;;;;;;;
2019/11/29 12:38:15;;;;;;;0.7;0.5;;;;;;;;;;;;;
2019/11/29 12:40:42;;;;;;;1.4;0.7;;;;;;;;;;;;;
2019/11/29 12:43:07;;;;;;;0.6;0.6;;;;;;;;;;;;;
2019/11/29 12:45:51;;;;;;;7.9;4.6;;;;;;;;;;;;;
2019/11/29 12:48:47;;;;;;;8;5.1;;;;;;;;;;;;;
2019/11/29 12:50:22;;;;;;;7.8;3.6;;;;;;;;;;;;;
2019/11/29 12:52:49;;;;;;;4.5;1.4;;;;;;;;;;;;;
2019/11/29 12:55:13;;;;;;;2.2;1.2;;;;;;;;;;;;;
2019/11/29 12:57:40;;;;;;;5.4;2.1;;;;;;;;;;;;;
2019/11/29 13:00:07;;;;;;;5.7;3.8;;;;;;;;;;;;;
2019/11/29 13:02:30;;;;;;;1.4;0.8;;;;;;;;;;;;;
2019/11/29 13:04:59;;;;;;;1.3;1;;;;;;;;;;;;;
2019/11/29 13:07:22;;;;;;;3.9;2;;;;;;;;;;;;;
2019/11/29 13:09:49;;;;;;;3.7;2;;;;;;;;;;;;;
2019/11/29 13:12:14;;;;;;;6.8;1.7;;;;;;;;;;;;;
2019/11/29 13:14:40;;;;;;;2;0.6;;;;;;;;;;;;;
2019/11/29 13:17:06;;;;;;;3.3;0.9;;;;;;;;;;;;;
2019/11/29 13:19:31;;;;;;;6;2.9;;;;;;;;;;;;;
2019/11/29 13:22:01;;;;;;;3.1;1;;;;;;;;;;;;;
2019/11/29 13:24:22;;;;;;;4;1.6;;;;;;;;;;;;;
2019/11/29 13:26:46;;;;;;;3.2;1.6;;;;;;;;;;;;;
2019/11/29 13:29:16;;;;;;;1;0.9;;;;;;;;;;;;;
2019/11/29 13:31:39;;;;;;;1.5;0.8;;;;;;;;;;;;;
2019/11/29 13:34:03;;;;;;;3.8;1.9;;;;;;;;;;;;;
2019/11/29 13:36:29;;;;;;;10.7;7.9;;;;;;;;;;;;;
2019/11/29 13:38:55;;;;;;;4.6;4;;;;;;;;;;;;;
2019/11/29 13:41:20;;;;;;;7.3;4.8;;;;;;;;;;;;;
2019/11/29 13:43:46;;;;;;;2.1;1.8;;;;;;;;;;;;;
2019/11/29 13:46:11;;;;;;;4.8;1.7;;;;;;;;;;;;;
2019/11/29 13:48:37;;;;;;;4.7;2.1;;;;;;;;;;;;;
2019/11/29 13:51:02;;;;;;;4.1;3.2;;;;;;;;;;;;;
2019/11/29 13:53:27;;;;;;;3.5;2.1;;;;;;;;;;;;;
2019/11/29 13:55:51;;;;;;;4.8;3.4;;;;;;;;;;;;;
2019/11/29 13:58:17;;;;;;;3.2;2;;;;;;;;;;;;;
2019/11/29 14:00:44;;;;;;;6.3;4.2;;;;;;;;;;;;;
2019/11/29 14:03:09;;;;;;;3.2;2.8;;;;;;;;;;;;;
2019/11/29 14:05:37;;;;;;;10;8.9;;;;;;;;;;;;;
2019/11/29 14:08:02;;;;;;;7.2;5.4;;;;;;;;;;;;;
2019/11/29 14:10:27;;;;;;;1.6;1.2;;;;;;;;;;;;;
2019/11/29 14:12:55;;;;;;;2.9;1.5;;;;;;;;;;;;;
2019/11/29 14:15:32;;;;;;;3.5;1.5;;;;;;;;;;;;;
2019/11/29 14:17:56;;;;;;;2.2;1.5;;;;;;;;;;;;;
2019/11/29 14:20:09;;;;;;;3.7;1.8;;;;;;;;;;;;;
2019/11/29 14:22:39;;;;;;;2.2;1;;;;;;;;;;;;;
2019/11/29 14:25:00;;;;;;;1.8;1;;;;;;;;;;;;;
2019/11/29 14:27:24;;;;;;;4.3;2;;;;;;;;;;;;;
2019/11/29 14:29:49;;;;;;;6.4;3;;;;;;;;;;;;;
2019/11/29 14:32:15;;;;;;;3;2;;;;;;;;;;;;;
2019/11/29 14:34:40;;;;;;;5.9;3.5;;;;;;;;;;;;;
2019/11/29 14:37:07;;;;;;;2;1.1;;;;;;;;;;;;;
2019/11/29 14:39:33;;;;;;;3.5;1.3;;;;;;;;;;;;;
2019/11/29 14:41:58;;;;;;;2.6;1.1;;;;;;;;;;;;;
2019/11/29 14:44:21;;;;;;;1.3;0.8;;;;;;;;;;;;;
2019/11/29 14:46:47;;;;;;;2.4;1.2;;;;;;;;;;;;;
2019/11/29 14:49:13;;;;;;;3.2;2.7;;;;;;;;;;;;;
2019/11/29 14:51:38;;;;;;;2.4;1.5;;;;;;;;;;;;;
2019/11/29 14:54:03;;;;;;;3.8;2.2;;;;;;;;;;;;;
2019/11/29 14:56:28;;;;;;;6.1;3.3;;;;;;;;;;;;;
2019/11/29 14:58:55;;;;;;;5.7;3.2;;;;;;;;;;;;;
2019/11/29 15:01:22;;;;;;;3.8;2.5;;;;;;;;;;;;;
2019/11/29 15:03:43;;;;;;;7.5;4;;;;;;;;;;;;;
2019/11/29 15:06:11;;;;;;;4.4;3;;;;;;;;;;;;;
2019/11/29 15:08:33;;;;;;;2.1;1.5;;;;;;;;;;;;;
2019/11/29 15:11:05;;;;;;;3.4;1.8;;;;;;;;;;;;;
2019/11/29 15:13:24;;;;;;;3.1;1.4;;;;;;;;;;;;;
2019/11/29 15:15:48;;;;;;;1.7;0.9;;;;;;;;;;;;;
2019/11/29 15:18:13;;;;;;;1.6;1;;;;;;;;;;;;;
2019/11/29 15:20:40;;;;;;;5.6;2.8;;;;;;;;;;;;;
2019/11/29 15:23:04;;;;;;;4.5;1.8;;;;;;;;;;;;;
2019/11/29 15:25:31;;;;;;;2.9;1.8;;;;;;;;;;;;;
2019/11/29 15:27:57;;;;;;;2;1.4;;;;;;;;;;;;;
2019/11/29 15:30:22;;;;;;;2.7;2;;;;;;;;;;;;;
2019/11/29 15:32:46;;;;;;;3.7;2;;;;;;;;;;;;;
2019/11/29 15:35:11;;;;;;;5.7;2.8;;;;;;;;;;;;;
2019/11/29 15:37:38;;;;;;;6;3.2;;;;;;;;;;;;;
2019/11/29 15:40:01;;;;;;;9.3;7;;;;;;;;;;;;;
2019/11/29 15:42:28;;;;;;;22.8;16.7;;;;;;;;;;;;;
2019/11/29 15:44:52;;;;;;;16.6;9.1;;;;;;;;;;;;;
2019/11/29 15:47:21;;;;;;;6.2;3.8;;;;;;;;;;;;;
2019/11/29 15:49:43;;;;;;;9.6;4.8;;;;;;;;;;;;;
2019/11/29 15:52:10;;;;;;;6.7;4.1;;;;;;;;;;;;;
2019/11/29 15:54:36;;;;;;;6.2;4.6;;;;;;;;;;;;;
2019/11/29 15:57:05;;;;;;;6.6;4.3;;;;;;;;;;;;;
2019/11/29 15:59:32;;;;;;;9.8;4.9;;;;;;;;;;;;;
2019/11/29 16:01:58;;;;;;;12.8;6.3;;;;;;;;;;;;;
2019/11/29 16:04:18;;;;;;;13.9;8.3;;;;;;;;;;;;;
2019/11/29 16:06:41;;;;;;;14.4;8.9;;;;;;;;;;;;;
2019/11/29 16:09:06;;;;;;;9.2;6.9;;;;;;;;;;;;;
2019/11/29 16:11:32;;;;;;;10.9;7.9;;;;;;;;;;;;;
2019/11/29 16:13:56;;;;;;;8.4;6.5;;;;;;;;;;;;;
2019/11/29 16:16:25;;;;;;;6.7;4.8;;;;;;;;;;;;;
2019/11/29 16:18:50;;;;;;;8.9;6.8;;;;;;;;;;;;;
2019/11/29 16:21:14;;;;;;;14.7;11.9;;;;;;;;;;;;;
2019/11/29 16:23:42;;;;;;;13.3;8.7;;;;;;;;;;;;;
2019/11/29 16:26:08;;;;;;;14;11.4;;;;;;;;;;;;;
2019/11/29 16:28:31;;;;;;;16.1;11.8;;;;;;;;;;;;;
2019/11/29 16:31:02;;;;;;;8.3;5.8;;;;;;;;;;;;;
2019/11/29 16:33:26;;;;;;;6.6;4.1;;;;;;;;;;;;;
2019/11/29 16:35:51;;;;;;;6.1;3.7;;;;;;;;;;;;;
2019/11/29 16:38:17;;;;;;;6.1;4.7;;;;;;;;;;;;;
2019/11/29 16:40:41;;;;;;;7.1;5.7;;;;;;;;;;;;;
2019/11/29 16:43:06;;;;;;;7.6;5.4;;;;;;;;;;;;;
2019/11/29 16:45:31;;;;;;;10.2;7.9;;;;;;;;;;;;;
2019/11/29 16:48:14;;;;;;;20.3;13.8;;;;;;;;;;;;;
2019/11/29 16:50:43;;;;;;;9.5;6.6;;;;;;;;;;;;;
2019/11/29 16:53:09;;;;;;;10.3;7.5;;;;;;;;;;;;;
2019/11/29 16:55:33;;;;;;;5.6;4;;;;;;;;;;;;;
2019/11/29 16:58:02;;;;;;;10.5;6.9;;;;;;;;;;;;;
2019/11/29 17:00:27;;;;;;;7;4.6;;;;;;;;;;;;;
2019/11/29 17:02:57;;;;;;;6.6;4.7;;;;;;;;;;;;;
2019/11/29 17:05:23;;;;;;;6.2;5.1;;;;;;;;;;;;;
2019/11/29 17:07:49;;;;;;;6.2;4.9;;;;;;;;;;;;;
2019/11/29 17:10:13;;;;;;;7.4;4.7;;;;;;;;;;;;;
2019/11/29 17:12:38;;;;;;;7.8;4.2;;;;;;;;;;;;;
2019/11/29 17:15:04;;;;;;;10.9;7.7;;;;;;;;;;;;;
2019/11/29 17:17:28;;;;;;;11.7;7.7;;;;;;;;;;;;;
2019/11/29 17:19:58;;;;;;;6;4.8;;;;;;;;;;;;;
2019/11/29 17:22:20;;;;;;;6.2;4.4;;;;;;;;;;;;;
2019/11/29 17:24:43;;;;;;;9.1;5.7;;;;;;;;;;;;;
2019/11/29 17:27:17;;;;;;;9.2;6.1;;;;;;;;;;;;;
2019/11/29 17:29:41;;;;;;;6.2;5.1;;;;;;;;;;;;;
2019/11/29 17:32:00;;;;;;;5.5;4.2;;;;;;;;;;;;;
2019/11/29 17:34:29;;;;;;;5.7;4.5;;;;;;;;;;;;;
2019/11/29 17:36:58;;;;;;;5.6;4.8;;;;;;;;;;;;;
2019/11/29 17:39:18;;;;;;;7.3;5;;;;;;;;;;;;;
2019/11/29 17:41:43;;;;;;;5;4.3;;;;;;;;;;;;;
2019/11/29 17:44:10;;;;;;;8.5;5.1;;;;;;;;;;;;;
2019/11/29 17:46:38;;;;;;;6.6;5;;;;;;;;;;;;;
2019/11/29 17:48:58;;;;;;;5.6;4.6;;;;;;;;;;;;;
2019/11/29 17:51:24;;;;;;;8;5;;;;;;;;;;;;;
2019/11/29 17:53:50;;;;;;;6.9;4.9;;;;;;;;;;;;;
2019/11/29 17:56:15;;;;;;;7.2;5.4;;;;;;;;;;;;;
2019/11/29 17:58:41;;;;;;;6.9;5.1;;;;;;;;;;;;;
2019/11/29 18:01:07;;;;;;;7.3;5.1;;;;;;;;;;;;;
2019/11/29 18:03:33;;;;;;;9.6;5.3;;;;;;;;;;;;;
2019/11/29 18:05:57;;;;;;;7.8;5.6;;;;;;;;;;;;;
2019/11/29 18:08:23;;;;;;;8.8;5.7;;;;;;;;;;;;;
2019/11/29 18:10:47;;;;;;;9.7;6.9;;;;;;;;;;;;;
2019/11/29 18:13:15;;;;;;;9.8;6.8;;;;;;;;;;;;;
2019/11/29 18:15:40;;;;;;;15.1;10;;;;;;;;;;;;;
2019/11/29 18:18:04;;;;;;;15.5;10;;;;;;;;;;;;;
2019/11/29 18:20:35;;;;;;;28;18.3;;;;;;;;;;;;;
2019/11/29 18:22:55;;;;;;;27;15.5;;;;;;;;;;;;;
2019/11/29 18:25:20;;;;;;;15.3;11.2;;;;;;;;;;;;;
2019/11/29 18:27:45;;;;;;;14.7;10.3;;;;;;;;;;;;;
2019/11/29 18:30:12;;;;;;;15.2;10.1;;;;;;;;;;;;;
2019/11/29 18:32:36;;;;;;;24;17.2;;;;;;;;;;;;;
2019/11/29 18:35:03;;;;;;;17.1;12.9;;;;;;;;;;;;;
2019/11/29 18:37:30;;;;;;;17.8;12.9;;;;;;;;;;;;;
2019/11/29 18:39:55;;;;;;;8.5;5.7;;;;;;;;;;;;;
2019/11/29 18:42:19;;;;;;;11.1;7.5;;;;;;;;;;;;;
2019/11/29 18:44:43;;;;;;;6.1;4.4;;;;;;;;;;;;;
2019/11/29 18:47:15;;;;;;;5.2;4.7;;;;;;;;;;;;;
2019/11/29 18:49:40;;;;;;;6.7;5.3;;;;;;;;;;;;;
2019/11/29 18:52:19;;;;;;;4.7;4.2;;;;;;;;;;;;;
2019/11/29 18:54:39;;;;;;;11.8;8.7;;;;;;;;;;;;;
2019/11/29 18:57:05;;;;;;;5.3;4.8;;;;;;;;;;;;;
2019/11/29 18:59:30;;;;;;;7;4.5;;;;;;;;;;;;;
2019/11/29 19:02:00;;;;;;;6.7;4.5;;;;;;;;;;;;;
2019/11/29 19:04:34;;;;;;;8.5;7.1;;;;;;;;;;;;;
2019/11/29 19:06:57;;;;;;;4.9;3.5;;;;;;;;;;;;;
2019/11/29 19:09:23;;;;;;;5.2;4.7;;;;;;;;;;;;;
2019/11/29 19:11:49;;;;;;;4;2.7;;;;;;;;;;;;;
2019/11/29 19:14:16;;;;;;;2.8;1.9;;;;;;;;;;;;;
2019/11/29 19:16:41;;;;;;;3.5;3.2;;;;;;;;;;;;;
2019/11/29 19:19:09;;;;;;;3.9;2.3;;;;;;;;;;;;;
2019/11/29 19:21:31;;;;;;;8.1;4.9;;;;;;;;;;;;;
2019/11/29 19:23:56;;;;;;;3.2;2.9;;;;;;;;;;;;;
2019/11/29 19:26:21;;;;;;;4.4;3.8;;;;;;;;;;;;;
2019/11/29 19:28:47;;;;;;;14.8;10.7;;;;;;;;;;;;;
2019/11/29 19:31:12;;;;;;;11.4;9.6;;;;;;;;;;;;;
2019/11/29 19:33:37;;;;;;;3.1;2.6;;;;;;;;;;;;;
2019/11/29 19:36:10;;;;;;;11.1;8.2;;;;;;;;;;;;;
2019/11/29 19:38:30;;;;;;;6.9;3.6;;;;;;;;;;;;;
2019/11/29 19:40:52;;;;;;;10.1;7.8;;;;;;;;;;;;;
2019/11/29 19:43:20;;;;;;;7.1;4.6;;;;;;;;;;;;;
2019/11/29 19:45:46;;;;;;;3.5;2.4;;;;;;;;;;;;;
2019/11/29 19:48:11;;;;;;;3.3;2.4;;;;;;;;;;;;;
2019/11/29 19:50:34;;;;;;;7.3;5.3;;;;;;;;;;;;;
2019/11/29 19:53:00;;;;;;;7.6;5.3;;;;;;;;;;;;;
2019/11/29 19:55:31;;;;;;;3.6;2.9;;;;;;;;;;;;;
2019/11/29 19:57:53;;;;;;;6.6;5.1;;;;;;;;;;;;;
2019/11/29 20:00:19;;;;;;;7.2;5.9;;;;;;;;;;;;;
2019/11/29 20:02:46;;;;;;;4.9;4.2;;;;;;;;;;;;;
2019/11/29 20:05:15;;;;;;;4.4;3.6;;;;;;;;;;;;;
2019/11/29 20:07:34;;;;;;;3.7;2.4;;;;;;;;;;;;;
2019/11/29 20:10:01;;;;;;;9.1;6.2;;;;;;;;;;;;;
2019/11/29 20:12:27;;;;;;;5.1;4.5;;;;;;;;;;;;;
2019/11/29 20:14:51;;;;;;;5.6;4.9;;;;;;;;;;;;;
2019/11/29 20:17:18;;;;;;;4.2;3.7;;;;;;;;;;;;;
2019/11/29 20:19:49;;;;;;;5.6;5;;;;;;;;;;;;;
2019/11/29 20:22:10;;;;;;;8.2;7;;;;;;;;;;;;;
2019/11/29 20:24:34;;;;;;;5.4;4.8;;;;;;;;;;;;;
2019/11/29 20:27:00;;;;;;;10.5;8.2;;;;;;;;;;;;;
2019/11/29 20:29:41;;;;;;;3.9;3.3;;;;;;;;;;;;;
2019/11/29 20:34:17;;;;;;;2.7;1.8;;;;;;;;;;;;;
2019/11/29 20:36:45;;;;;;;2;1.8;;;;;;;;;;;;;
2019/11/29 20:39:09;;;;;;;4.9;4.4;;;;;;;;;;;;;
2019/11/29 20:41:35;;;;;;;2.5;1.8;;;;;;;;;;;;;
2019/11/29 20:43:59;;;;;;;7.1;6.4;;;;;;;;;;;;;
2019/11/29 20:46:24;;;;;;;4.3;3.8;;;;;;;;;;;;;
2019/11/29 20:48:50;;;;;;;2.9;2.5;;;;;;;;;;;;;
2019/11/29 20:51:13;;;;;;;7;5.6;;;;;;;;;;;;;
2019/11/29 20:53:40;;;;;;;7.7;7;;;;;;;;;;;;;